AirNav   Everest Fuels
 
 494 users online  

KNWL Waldron Field NOLF
Corpus Christi, Texas, USA

GOING TO CORPUS CHRISTI?


FAA INFORMATION EFFECTIVE 08 OCTOBER 2020

Location

FAA Identifier: NWL
Lat/Long: 27-38-06.0000N 097-18-44.0000W
27-38.100000N 097-18.733333W
27.6350000,-97.3122222
(estimated)
Elevation: 25 ft. / 8 m (estimated)
Variation: 04E (2015)
From city: 6 miles SSE of CORPUS CHRISTI, TX
Time zone: UTC -5 (UTC -6 during Standard Time)
Zip code: 78418

Airport Operations

Airport use: Private use. Permission required prior to landing
Activation date: 03/2005
Control tower: yes
ARTCC: HOUSTON CENTER
FSS: SAN ANGELO FLIGHT SERVICE STATION
Attendance: MON-FRI 1330Z++-SS
Wind indicator: yes
Segmented circle: no

Airport Communications

NAVY WALDRON TOWER: 133.85 236.825 [1330Z++-SS MON-FRI]
WX ASOS at CRP (13 nm NW): PHONE 361-289-0191
WX AWOS-3 at RAS (16 nm NE): 118.425 (361-749-0537)
WX AWOS-3 at TFP (18 nm N): 118.775 (361-758-8961)

Nearby radio navigation aids

VOR radial/distance  VOR name  Freq  Var
CRPr147/17.6CORPUS CHRISTI VORTAC115.5009E
ALIr093/(38.2)ALICE VOR114.5006E

 
NDB name  Hdg/Dist  Freq  Var  ID
MELLON RANCH182/39.137506EMNO -- -. ---

Airport Services

Runway Information

Runway 13/31

Dimensions: 5000 x 200 ft. / 1524 x 61 m
Surface: asphalt
Weight bearing capacity: 
PCN 35 /F/B/W/T
RUNWAY 13  RUNWAY 31
Traffic pattern: leftleft
Displaced threshold: 300 ft.750 ft.

Runway 18/36

Dimensions: 5000 x 200 ft. / 1524 x 61 m
Surface: asphalt
Weight bearing capacity: 
PCN 25 /F/B/W/T
RUNWAY 18  RUNWAY 36
Traffic pattern: leftleft
Displaced threshold: 420 ft.185 ft.

Airport Ownership and Management from official FAA records

Ownership: U.S. Navy
Owner: U.S. NAVY
11001 D STREET SUITE 143
CORPUS CHRISTI, TX 78419
Phone 361-961-2332
Manager: COMMANDER OFFICER, NAS
11001 D STREET SUITE 143
CORPUS CHRISTI, TX 78419
Phone 361-961-2332

Additional Remarks

RSTD: AVBL FOR NAVY TRNG ONLY.
RSTD: NO FAC.
CAUTION: IF EQUIPPED ALL ACFT SHALL UTILIZE UHF ATC FREQUENCIES UNLESS ASSIGNED VHF.
NO PARKING APN AVBL.
WHEN ATCT CLSD, FOR CD CTC HOUSTON ARTCC AT 281-230-5622.

Instrument Procedures

There are no published instrument procedures at KNWL.

Some nearby airports with instrument procedures:

KNGP - Corpus Christi Naval Air Station/Truax Field (4 nm N)
KCRP - Corpus Christi International Airport (13 nm NW)
KRAS - Mustang Beach Airport (16 nm NE)
KTFP - McCampbell-Porter Airport (18 nm N)
KRBO - Nueces County Airport (22 nm NW)
 
Loc | Ops | Rwys | IFR | FBO | Links
Com | Nav | Svcs | Stats | Notes
Area around KNWL (Waldron Field NOLF)
 
Road maps at: MapQuest Bing Google
 
Aerial photo
No photo
 
Sectional chart

 
Airport distance calculator
Flying to Waldron Field NOLF? Find the distance to fly.

From to KNWL

Sunrise and sunset
Times for 21-Oct-2020
 Local
(UTC-5)
 Zulu
(UTC)
Morning civil twilight07:1112:11
Sunrise07:3512:35
Sunset18:5323:53
Evening civil twilight19:1700:17

Current date and time
Zulu (UTC)  21-Oct-2020 05:35:35
Local (UTC-5)  21-Oct-2020 00:35:35
 
METAR
KNGP 
4nm NE 
210356Z 12013KT 10SM SCT017 SCT022 27/24 A2995 RMK SLP140 T02670239
KCRP 
13nm NW 
210451Z 12006KT 10SM FEW018 24/23 A2995 RMK AO2 SLP141 T02440228
KRAS 
16nm NE 
210515Z AUTO 12010G16KT 10SM SCT014 SCT020 SCT036 26/23 A2997 RMK AO2 T02640232
TAF
KNGP 
4nm NE 
2023/2123 12012KT 9999 FEW020 QNH2990INS TEMPO 2102/2106 SCT015 BKN025 BECMG 2106/2108 12006KT 9999 SCT015 BKN030 QNH2993INS TEMPO 2109/2115 8000 BR FEW010 BKN020 BECMG 2115/2117 10012KT 9999 FEW020 SCT035 QNH2991INS AUTOMATED SENSOR METWATCH 2104 TIL 2111 T24/2112Z T31/2120Z FN20058
KCRP 
13nm NW 
201733Z 2018/2118 13011KT P6SM SCT040 FM202200 12012KT P6SM FEW020 FM210100 11008KT P6SM SCT020 FM210800 VRB05KT P6SM BKN035 FM211500 11008KT P6SM SCT030
NOTAMs
Click for the latest NOTAMs
NOTAMs are issued by the DoD/FAA and will open in a separate window not controlled by AirNav.

 

 
 

Would you like to see your business listed on this page?

 If your business provides an interesting product or service to pilots, flight crews, aircraft, or users of the Waldron Field NOLF, you should consider listing it here.  To start the listing process, click on the button below
 
Add a business
 

Other Pages about Waldron Field NOLF

Update a link
 
Copyright © AirNav, LLC. All rights reserved. Privacy Policy  Contact